Time;durP1;ratioP1;P1;durP2;ratioP2;P2;SDS_P1;SDS_P2;PMS_P1;PMS_P2;Temp;Humidity;BMP_temperature;BMP_pressure;BME280_temperature;BME280_humidity;BME280_pressure;Samples;Min_cycle;Max_cycle;Signal;HPM_P1;HPM_P2
2021/08/21 00:01:21;;;;;;;7.47;5.35;;;;;;;;;;5115251;28;20020;-43
2021/08/21 00:03:48;;;;;;;7.25;5.93;;;;;;;;;;5115330;28;20031;-43
2021/08/21 00:06:14;;;;;;;10.65;5.72;;;;;;;;;;5115317;28;20376;-46
2021/08/21 00:08:40;;;;;;;6.80;5.80;;;;;;;;;;5115263;28;20036;-46
2021/08/21 00:11:06;;;;;;;6.13;5.53;;;;;;;;;;5115119;28;20031;-44
2021/08/21 00:13:32;;;;;;;7.75;5.75;;;;;;;;;;5114861;28;20024;-45
2021/08/21 00:15:58;;;;;;;4.95;4.53;;;;;;;;;;5115042;28;20077;-48
2021/08/21 00:18:24;;;;;;;6.35;5.03;;;;;;;;;;5114967;28;20094;-45
2021/08/21 00:20:50;;;;;;;7.00;5.18;;;;;;;;;;5114962;28;20016;-45
2021/08/21 00:23:16;;;;;;;9.73;6.78;;;;;;;;;;5114630;28;20048;-46
2021/08/21 00:25:42;;;;;;;6.57;5.88;;;;;;;;;;5114992;28;20024;-45
2021/08/21 00:28:08;;;;;;;6.68;5.97;;;;;;;;;;5114916;28;20023;-45
2021/08/21 00:30:34;;;;;;;6.43;5.78;;;;;;;;;;5114792;28;20047;-43
2021/08/21 00:33:00;;;;;;;8.25;5.00;;;;;;;;;;5114651;28;20031;-44
2021/08/21 00:35:26;;;;;;;6.75;4.85;;;;;;;;;;5114514;28;20024;-43
2021/08/21 00:37:52;;;;;;;7.00;5.32;;;;;;;;;;5114284;28;20024;-43
2021/08/21 00:40:18;;;;;;;6.22;5.10;;;;;;;;;;5114404;28;20020;-44
2021/08/21 00:42:44;;;;;;;5.18;4.68;;;;;;;;;;5114311;28;20099;-44
2021/08/21 00:45:11;;;;;;;6.15;5.55;;;;;;;;;;5114228;28;20028;-44
2021/08/21 00:47:37;;;;;;;7.60;6.18;;;;;;;;;;5095867;28;20372;-43
2021/08/21 00:50:03;;;;;;;7.57;5.32;;;;;;;;;;5114456;28;20038;-44
2021/08/21 00:52:31;;;;;;;6.40;5.20;;;;;;;;;;5114154;28;20380;-47
2021/08/21 00:54:58;;;;;;;7.22;5.35;;;;;;;;;;5114286;28;20050;-43
2021/08/21 00:57:24;;;;;;;6.32;5.10;;;;;;;;;;5113968;28;20023;-46
2021/08/21 00:59:51;;;;;;;6.75;5.32;;;;;;;;;;5114212;28;20016;-45
2021/08/21 01:02:18;;;;;;;6.47;5.20;;;;;;;;;;5079299;28;20024;-44
2021/08/21 01:04:46;;;;;;;6.60;5.40;;;;;;;;;;5114051;28;20430;-44
2021/08/21 01:07:13;;;;;;;6.25;5.40;;;;;;;;;;5114121;28;20020;-44
2021/08/21 01:09:40;;;;;;;7.80;5.05;;;;;;;;;;5113860;28;20028;-43
2021/08/21 01:12:06;;;;;;;7.60;6.25;;;;;;;;;;5113738;28;20027;-43
2021/08/21 01:14:32;;;;;;;6.32;5.38;;;;;;;;;;5113742;28;20098;-44
2021/08/21 01:16:58;;;;;;;7.05;5.97;;;;;;;;;;5113623;28;20024;-44
2021/08/21 01:19:25;;;;;;;7.03;5.57;;;;;;;;;;5113753;28;20061;-44
2021/08/21 01:21:51;;;;;;;6.00;5.40;;;;;;;;;;5113705;28;20024;-45
2021/08/21 01:24:17;;;;;;;5.70;5.10;;;;;;;;;;5113605;28;20125;-44
2021/08/21 01:26:50;;;;;;;6.40;5.03;;;;;;;;;;5113878;28;20122;-45
2021/08/21 01:29:17;;;;;;;6.63;5.55;;;;;;;;;;5113741;28;20047;-44
2021/08/21 01:31:43;;;;;;;7.78;5.63;;;;;;;;;;5113480;28;20098;-44
2021/08/21 01:34:09;;;;;;;6.53;5.85;;;;;;;;;;5113388;28;20069;-44
2021/08/21 01:36:42;;;;;;;7.97;6.55;;;;;;;;;;5113413;28;20024;-43
2021/08/21 01:39:08;;;;;;;7.25;6.55;;;;;;;;;;5113316;28;20031;-43
2021/08/21 01:41:35;;;;;;;8.75;6.20;;;;;;;;;;5113390;28;20027;-43
2021/08/21 01:44:01;;;;;;;7.18;6.47;;;;;;;;;;5113206;28;20027;-44
2021/08/21 01:46:27;;;;;;;10.95;5.80;;;;;;;;;;5113113;28;20020;-43
2021/08/21 01:48:53;;;;;;;9.15;7.60;;;;;;;;;;5113277;28;20024;-43
2021/08/21 01:51:19;;;;;;;5.97;5.32;;;;;;;;;;5113214;28;20024;-45
2021/08/21 01:53:45;;;;;;;6.47;5.75;;;;;;;;;;5113258;28;20031;-43
2021/08/21 01:56:11;;;;;;;6.85;5.70;;;;;;;;;;5112496;28;20031;-44
2021/08/21 01:58:37;;;;;;;10.13;6.93;;;;;;;;;;5112893;28;20039;-43
2021/08/21 02:01:04;;;;;;;6.70;5.47;;;;;;;;;;5112953;28;20023;-44
2021/08/21 02:03:31;;;;;;;6.97;5.88;;;;;;;;;;5112764;28;20463;-44
2021/08/21 02:05:57;;;;;;;7.95;6.70;;;;;;;;;;5112751;28;20080;-46
2021/08/21 02:08:23;;;;;;;11.55;6.80;;;;;;;;;;5112860;28;20368;-44
2021/08/21 02:10:50;;;;;;;7.28;6.53;;;;;;;;;;5113007;28;20658;-45
2021/08/21 02:13:16;;;;;;;8.77;5.80;;;;;;;;;;5112833;28;20751;-45
2021/08/21 02:15:42;;;;;;;5.95;5.35;;;;;;;;;;5094310;28;20016;-44
2021/08/21 02:18:08;;;;;;;6.47;5.88;;;;;;;;;;5112527;28;20020;-46
2021/08/21 02:20:34;;;;;;;8.90;5.90;;;;;;;;;;5112643;28;20028;-45
2021/08/21 02:23:00;;;;;;;6.47;5.80;;;;;;;;;;5112611;28;20036;-44
2021/08/21 02:25:26;;;;;;;7.30;6.10;;;;;;;;;;5112464;28;20098;-44
2021/08/21 02:28:17;;;;;;;8.50;6.15;;;;;;;;;;5112349;28;20548;-43
2021/08/21 02:30:41;;;;;;;9.85;6.50;;;;;;;;;;5112074;28;20081;-44
2021/08/21 02:33:07;;;;;;;7.22;6.53;;;;;;;;;;5112405;28;20043;-44
2021/08/21 02:35:34;;;;;;;6.03;5.47;;;;;;;;;;5112158;28;20024;-45
2021/08/21 02:38:01;;;;;;;7.53;6.32;;;;;;;;;;5112120;28;20487;-42
2021/08/21 02:40:27;;;;;;;5.93;5.32;;;;;;;;;;5112256;28;20039;-44
2021/08/21 02:42:54;;;;;;;7.50;4.80;;;;;;;;;;5093946;28;20158;-44
2021/08/21 02:45:20;;;;;;;6.22;5.63;;;;;;;;;;5112263;28;20055;-43
2021/08/21 02:47:46;;;;;;;5.72;5.22;;;;;;;;;;5112137;28;20031;-44
2021/08/21 02:50:12;;;;;;;6.38;5.72;;;;;;;;;;5112106;28;20168;-44
2021/08/21 02:52:38;;;;;;;6.90;6.20;;;;;;;;;;5111955;28;20031;-45
2021/08/21 02:55:04;;;;;;;6.63;6.00;;;;;;;;;;5112028;28;20480;-44
2021/08/21 02:57:30;;;;;;;6.95;6.20;;;;;;;;;;5111129;28;20034;-44
2021/08/21 02:59:56;;;;;;;7.25;6.35;;;;;;;;;;5110649;28;20024;-43
2021/08/21 03:02:22;;;;;;;6.40;5.82;;;;;;;;;;5110439;28;20026;-43
2021/08/21 03:04:48;;;;;;;7.45;6.10;;;;;;;;;;5110548;28;20078;-44
2021/08/21 03:07:14;;;;;;;7.38;6.00;;;;;;;;;;5092187;28;20016;-43
2021/08/21 03:09:40;;;;;;;8.25;6.28;;;;;;;;;;5114265;28;20402;-42
2021/08/21 03:12:06;;;;;;;6.20;5.57;;;;;;;;;;5114610;28;20026;-44
2021/08/21 03:14:32;;;;;;;6.82;5.97;;;;;;;;;;5114648;28;20019;-45
2021/08/21 03:16:58;;;;;;;7.25;6.43;;;;;;;;;;5114573;28;20027;-44
2021/08/21 03:19:25;;;;;;;7.22;6.28;;;;;;;;;;5112013;28;20685;-47
2021/08/21 03:21:51;;;;;;;6.45;5.80;;;;;;;;;;5114615;28;20019;-46
2021/08/21 03:24:17;;;;;;;10.75;6.43;;;;;;;;;;5114487;28;20572;-45
2021/08/21 03:26:43;;;;;;;9.10;6.35;;;;;;;;;;5114627;28;20015;-45
2021/08/21 03:29:09;;;;;;;8.15;6.25;;;;;;;;;;5113929;28;20383;-45
2021/08/21 03:31:35;;;;;;;10.60;6.50;;;;;;;;;;5114143;28;20026;-44
2021/08/21 03:34:01;;;;;;;10.73;6.90;;;;;;;;;;5113841;28;20030;-43
2021/08/21 03:36:28;;;;;;;6.85;6.15;;;;;;;;;;5113876;28;20031;-45
2021/08/21 03:38:55;;;;;;;7.50;6.65;;;;;;;;;;5114068;28;20027;-44
2021/08/21 03:41:21;;;;;;;9.40;6.60;;;;;;;;;;5095747;28;20051;-45
2021/08/21 03:43:47;;;;;;;8.00;6.80;;;;;;;;;;5113826;28;20061;-45
2021/08/21 03:46:13;;;;;;;8.60;6.15;;;;;;;;;;5113775;28;20088;-44
2021/08/21 03:48:39;;;;;;;7.95;6.82;;;;;;;;;;5113790;28;20019;-46
2021/08/21 03:51:05;;;;;;;9.10;6.07;;;;;;;;;;5092610;28;20019;-46
2021/08/21 03:53:31;;;;;;;7.97;6.63;;;;;;;;;;5113955;28;20027;-45
2021/08/21 03:55:57;;;;;;;8.35;6.72;;;;;;;;;;5113821;28;20042;-45
2021/08/21 03:58:23;;;;;;;6.72;6.00;;;;;;;;;;5113526;28;20467;-42
2021/08/21 04:00:49;;;;;;;9.55;6.43;;;;;;;;;;5113752;28;20043;-45
2021/08/21 04:03:15;;;;;;;7.65;6.38;;;;;;;;;;5113681;28;20016;-45
2021/08/21 04:05:42;;;;;;;9.88;6.65;;;;;;;;;;5113467;28;20016;-44
2021/08/21 04:08:08;;;;;;;7.10;6.40;;;;;;;;;;5113416;28;20027;-45
2021/08/21 04:10:36;;;;;;;5.70;5.20;;;;;;;;;;5095503;28;20073;-46
2021/08/21 04:13:02;;;;;;;7.82;7.03;;;;;;;;;;5095152;28;20494;-44
2021/08/21 04:15:29;;;;;;;6.88;5.97;;;;;;;;;;5095347;28;20483;-44
2021/08/21 04:17:55;;;;;;;7.57;6.78;;;;;;;;;;5113462;28;20027;-43
2021/08/21 04:20:21;;;;;;;6.20;5.60;;;;;;;;;;5112941;28;20024;-44
2021/08/21 04:22:47;;;;;;;6.72;5.35;;;;;;;;;;5113621;28;20052;-44
2021/08/21 04:25:13;;;;;;;8.68;6.25;;;;;;;;;;5113947;28;20015;-44
2021/08/21 04:27:39;;;;;;;7.57;5.65;;;;;;;;;;5113314;28;20015;-45
2021/08/21 04:30:05;;;;;;;8.63;6.32;;;;;;;;;;5113350;28;20024;-45
2021/08/21 04:32:32;;;;;;;7.30;5.75;;;;;;;;;;5113275;28;20027;-44
2021/08/21 04:34:58;;;;;;;7.57;6.53;;;;;;;;;;5113107;28;20039;-44
2021/08/21 04:37:24;;;;;;;7.72;6.53;;;;;;;;;;5112513;28;20088;-45
2021/08/21 04:39:50;;;;;;;8.27;7.40;;;;;;;;;;5112435;28;20023;-44
2021/08/21 04:42:16;;;;;;;7.57;5.68;;;;;;;;;;5094657;28;20015;-45
2021/08/21 04:44:42;;;;;;;8.43;5.70;;;;;;;;;;5112449;28;20038;-43
2021/08/21 04:47:08;;;;;;;8.95;6.18;;;;;;;;;;5112542;28;20030;-45
2021/08/21 04:49:35;;;;;;;9.90;6.40;;;;;;;;;;5094781;28;20023;-44
2021/08/21 04:52:01;;;;;;;8.98;6.95;;;;;;;;;;5112449;28;20048;-46
2021/08/21 04:54:27;;;;;;;7.53;6.63;;;;;;;;;;5112537;28;20016;-45
2021/08/21 04:56:54;;;;;;;6.18;5.57;;;;;;;;;;5112509;28;20447;-44
2021/08/21 04:59:20;;;;;;;8.07;6.07;;;;;;;;;;5112840;28;20069;-44
2021/08/21 05:01:46;;;;;;;8.00;6.95;;;;;;;;;;5112409;28;20023;-46
2021/08/21 05:04:12;;;;;;;8.02;6.50;;;;;;;;;;5112495;28;20015;-48
2021/08/21 05:06:38;;;;;;;7.57;6.78;;;;;;;;;;5112707;28;20026;-44
2021/08/21 05:09:04;;;;;;;8.43;6.47;;;;;;;;;;5109794;28;20519;-44
2021/08/21 05:11:31;;;;;;;8.93;7.00;;;;;;;;;;5112298;28;20023;-44
2021/08/21 05:13:57;;;;;;;7.75;6.72;;;;;;;;;;5094136;28;20031;-45
2021/08/21 05:16:23;;;;;;;7.65;6.53;;;;;;;;;;5112364;28;20058;-44
2021/08/21 05:18:53;;;;;;;8.13;6.82;;;;;;;;;;5112338;28;20024;-47
2021/08/21 05:21:28;;;;;;;11.48;6.28;;;;;;;;;;5112338;28;20020;-43
2021/08/21 05:23:54;;;;;;;6.60;5.90;;;;;;;;;;5098568;28;20055;-44
2021/08/21 05:26:20;;;;;;;6.75;6.10;;;;;;;;;;5073479;28;20053;-45
2021/08/21 05:28:47;;;;;;;6.82;6.13;;;;;;;;;;5091358;28;20058;-44
2021/08/21 05:31:13;;;;;;;6.70;5.82;;;;;;;;;;5091362;28;20020;-46
2021/08/21 05:33:39;;;;;;;6.70;5.93;;;;;;;;;;5093259;28;20035;-45
2021/08/21 05:36:05;;;;;;;9.07;6.40;;;;;;;;;;5093036;28;20031;-44
2021/08/21 05:38:31;;;;;;;7.07;5.35;;;;;;;;;;5074726;28;20024;-45
2021/08/21 05:40:57;;;;;;;5.75;5.25;;;;;;;;;;5074731;28;20020;-46
2021/08/21 05:43:23;;;;;;;6.53;5.65;;;;;;;;;;5074923;28;20020;-44
2021/08/21 05:45:49;;;;;;;7.28;6.20;;;;;;;;;;5092826;28;20020;-43
2021/08/21 05:48:15;;;;;;;6.57;5.97;;;;;;;;;;5074849;28;20020;-43
2021/08/21 05:50:41;;;;;;;8.02;5.57;;;;;;;;;;5092701;28;20016;-47
2021/08/21 05:53:07;;;;;;;6.45;5.32;;;;;;;;;;5092993;28;20032;-43
2021/08/21 05:55:33;;;;;;;6.00;5.40;;;;;;;;;;5092659;28;20023;-44
2021/08/21 05:58:00;;;;;;;6.03;5.43;;;;;;;;;;5092544;28;20020;-43
2021/08/21 06:00:26;;;;;;;6.75;5.95;;;;;;;;;;5092792;28;20024;-44
2021/08/21 06:02:52;;;;;;;8.20;5.80;;;;;;;;;;5085912;28;20024;-43
2021/08/21 06:05:18;;;;;;;5.90;5.35;;;;;;;;;;5073300;28;20025;-46
2021/08/21 06:07:44;;;;;;;6.85;5.43;;;;;;;;;;5071987;28;20021;-47
2021/08/21 06:10:10;;;;;;;6.22;5.63;;;;;;;;;;5082736;28;20085;-45
2021/08/21 06:12:36;;;;;;;6.72;4.97;;;;;;;;;;5072283;28;20028;-44
2021/08/21 06:15:03;;;;;;;5.80;5.30;;;;;;;;;;5071844;28;20453;-45
2021/08/21 06:17:29;;;;;;;5.28;4.80;;;;;;;;;;5072123;28;20025;-46
2021/08/21 06:19:58;;;;;;;7.63;5.97;;;;;;;;;;5072019;28;20025;-44
2021/08/21 06:22:24;;;;;;;6.75;5.78;;;;;;;;;;5071976;28;20016;-44
2021/08/21 06:24:51;;;;;;;5.95;5.45;;;;;;;;;;5090585;28;20131;-46
2021/08/21 06:27:17;;;;;;;9.63;6.63;;;;;;;;;;5092171;28;20103;-44
2021/08/21 06:29:44;;;;;;;8.05;6.10;;;;;;;;;;5092332;28;20086;-44
2021/08/21 06:32:10;;;;;;;6.35;5.63;;;;;;;;;;5092077;28;20480;-43
2021/08/21 06:34:36;;;;;;;6.93;6.15;;;;;;;;;;5092042;28;20028;-45
2021/08/21 06:37:03;;;;;;;7.10;6.00;;;;;;;;;;5091742;28;20461;-44
2021/08/21 06:39:29;;;;;;;7.80;5.68;;;;;;;;;;5091833;28;20061;-45
2021/08/21 06:41:55;;;;;;;6.75;5.80;;;;;;;;;;5091888;28;20020;-46
2021/08/21 06:44:21;;;;;;;6.03;4.78;;;;;;;;;;5091758;28;20020;-45
2021/08/21 06:46:47;;;;;;;5.82;5.28;;;;;;;;;;5091848;28;20508;-45
2021/08/21 06:49:13;;;;;;;5.97;5.38;;;;;;;;;;5091674;28;20031;-44
2021/08/21 06:51:39;;;;;;;6.90;5.00;;;;;;;;;;5073657;28;20036;-45
2021/08/21 06:54:05;;;;;;;6.30;5.70;;;;;;;;;;5091798;28;20028;-44
2021/08/21 06:56:31;;;;;;;6.30;5.18;;;;;;;;;;5091775;28;20032;-48
2021/08/21 06:58:58;;;;;;;5.43;4.80;;;;;;;;;;5091620;28;20028;-47
2021/08/21 07:01:24;;;;;;;6.13;5.28;;;;;;;;;;5091667;28;20033;-44
2021/08/21 07:03:50;;;;;;;7.50;5.30;;;;;;;;;;5073429;28;20534;-44
2021/08/21 07:06:16;;;;;;;6.97;4.88;;;;;;;;;;5091586;28;20020;-45
2021/08/21 07:08:42;;;;;;;6.60;4.70;;;;;;;;;;5091319;28;20086;-45
2021/08/21 07:11:08;;;;;;;5.20;4.70;;;;;;;;;;5091562;28;20042;-45
2021/08/21 07:13:34;;;;;;;8.10;5.13;;;;;;;;;;5091495;28;20139;-45
2021/08/21 07:16:00;;;;;;;5.07;4.57;;;;;;;;;;5091464;28;20024;-44
2021/08/21 07:18:26;;;;;;;4.40;4.00;;;;;;;;;;5091185;28;20362;-45
2021/08/21 07:20:52;;;;;;;5.38;4.88;;;;;;;;;;5091264;28;20012;-46
2021/08/21 07:23:18;;;;;;;6.63;5.07;;;;;;;;;;5091308;28;20499;-44
2021/08/21 07:25:44;;;;;;;6.68;4.60;;;;;;;;;;5091188;28;20100;-45
2021/08/21 07:28:10;;;;;;;5.60;4.22;;;;;;;;;;5091259;28;20081;-44
2021/08/21 07:30:37;;;;;;;4.22;3.83;;;;;;;;;;5091211;28;20027;-44
2021/08/21 07:33:03;;;;;;;4.60;4.20;;;;;;;;;;5091158;28;20465;-43
2021/08/21 07:35:29;;;;;;;4.65;4.20;;;;;;;;;;5091392;28;20034;-45
2021/08/21 07:37:55;;;;;;;5.00;4.40;;;;;;;;;;5091005;28;20052;-45
2021/08/21 07:40:21;;;;;;;4.75;4.30;;;;;;;;;;5091162;28;20020;-44
2021/08/21 07:42:47;;;;;;;4.78;3.95;;;;;;;;;;5091069;28;20051;-44
2021/08/21 07:45:14;;;;;;;7.00;4.53;;;;;;;;;;5091102;28;20024;-44
2021/08/21 07:47:40;;;;;;;5.05;4.45;;;;;;;;;;5090923;28;20024;-44
2021/08/21 07:50:06;;;;;;;5.40;4.15;;;;;;;;;;5090999;28;20020;-44
2021/08/21 07:52:32;;;;;;;10.65;4.70;;;;;;;;;;5090915;28;20020;-43
2021/08/21 07:54:58;;;;;;;4.50;3.88;;;;;;;;;;5093430;28;20071;-45
2021/08/21 07:57:24;;;;;;;4.30;3.90;;;;;;;;;;5093510;28;20078;-43
2021/08/21 07:59:51;;;;;;;4.15;3.83;;;;;;;;;;5094757;28;20024;-45
2021/08/21 08:02:17;;;;;;;4.53;4.13;;;;;;;;;;5094633;28;20020;-45
2021/08/21 08:04:43;;;;;;;5.15;4.65;;;;;;;;;;5094608;28;20093;-44
2021/08/21 08:07:09;;;;;;;4.47;4.07;;;;;;;;;;5093369;28;20035;-45
2021/08/21 08:09:35;;;;;;;4.70;4.30;;;;;;;;;;5094738;28;20322;-44
2021/08/21 08:12:01;;;;;;;3.63;3.33;;;;;;;;;;5094890;28;20566;-45
2021/08/21 08:14:27;;;;;;;5.03;3.83;;;;;;;;;;5094522;28;20366;-45
2021/08/21 08:16:53;;;;;;;4.18;3.78;;;;;;;;;;5094292;28;20445;-45
2021/08/21 08:19:19;;;;;;;4.43;4.03;;;;;;;;;;5094173;28;20035;-44
2021/08/21 08:21:45;;;;;;;3.92;3.63;;;;;;;;;;5094282;28;20024;-44
2021/08/21 08:24:12;;;;;;;4.78;4.32;;;;;;;;;;5094067;28;20131;-44
2021/08/21 08:26:38;;;;;;;6.05;3.90;;;;;;;;;;5094158;28;20020;-48
2021/08/21 08:29:04;;;;;;;6.88;4.20;;;;;;;;;;5094161;28;20408;-44
2021/08/21 08:31:30;;;;;;;3.92;3.50;;;;;;;;;;5094012;28;20388;-45
2021/08/21 08:33:56;;;;;;;3.72;3.42;;;;;;;;;;5094034;28;20035;-46
2021/08/21 08:36:22;;;;;;;5.82;3.58;;;;;;;;;;5094054;28;20396;-44
2021/08/21 08:38:49;;;;;;;5.72;4.20;;;;;;;;;;5093852;28;20024;-45
2021/08/21 08:41:20;;;;;;;3.55;3.25;;;;;;;;;;5093916;28;20455;-45
2021/08/21 08:43:46;;;;;;;4.43;3.97;;;;;;;;;;5093887;28;20036;-46
2021/08/21 08:46:12;;;;;;;4.15;3.75;;;;;;;;;;5093681;28;20392;-44
2021/08/21 08:48:38;;;;;;;4.13;3.67;;;;;;;;;;5093767;28;20031;-45
2021/08/21 08:51:04;;;;;;;3.72;3.42;;;;;;;;;;5093806;28;20028;-44
2021/08/21 08:53:30;;;;;;;3.50;3.20;;;;;;;;;;5093583;28;20457;-45
2021/08/21 08:55:56;;;;;;;4.28;3.83;;;;;;;;;;5092266;28;20087;-46
2021/08/21 08:58:22;;;;;;;5.85;3.50;;;;;;;;;;5093406;28;20043;-45
2021/08/21 09:00:48;;;;;;;4.07;3.58;;;;;;;;;;5093444;28;20453;-46
2021/08/21 09:03:19;;;;;;;3.92;3.45;;;;;;;;;;5093454;28;20020;-46
2021/08/21 09:05:45;;;;;;;4.35;3.53;;;;;;;;;;5092298;28;20031;-44
2021/08/21 09:08:41;;;;;;;3.80;3.47;;;;;;;;;;5093370;28;20048;-44
2021/08/21 09:11:23;;;;;;;3.63;3.33;;;;;;;;;;5076147;28;20036;-45
2021/08/21 09:13:49;;;;;;;5.20;4.25;;;;;;;;;;5093233;28;20059;-45
2021/08/21 09:16:25;;;;;;;5.10;4.18;;;;;;;;;;5091887;28;20034;-45
2021/08/21 09:19:04;;;;;;;4.55;3.88;;;;;;;;;;5093261;28;20107;-45
2021/08/21 09:21:31;;;;;;;4.80;4.00;;;;;;;;;;5092917;28;20077;-44
2021/08/21 09:23:57;;;;;;;3.97;3.60;;;;;;;;;;5093010;28;20044;-44
2021/08/21 09:26:35;;;;;;;4.45;3.67;;;;;;;;;;5093127;28;20469;-44
2021/08/21 09:29:02;;;;;;;3.70;3.40;;;;;;;;;;5093297;28;20024;-45
2021/08/21 09:31:36;;;;;;;4.35;3.95;;;;;;;;;;5093363;28;20055;-44
2021/08/21 09:34:04;;;;;;;4.18;3.50;;;;;;;;;;5092798;28;20028;-45
2021/08/21 09:36:37;;;;;;;4.03;3.63;;;;;;;;;;5092891;28;20073;-45
2021/08/21 09:39:07;;;;;;;4.40;4.00;;;;;;;;;;5091565;28;20481;-45
2021/08/21 09:41:53;;;;;;;5.20;3.75;;;;;;;;;;5092848;28;20020;-46
2021/08/21 09:44:25;;;;;;;3.50;3.17;;;;;;;;;;5092802;28;20027;-44
2021/08/21 09:47:08;;;;;;;4.38;3.90;;;;;;;;;;5093171;28;20012;-44
2021/08/21 09:49:34;;;;;;;4.10;3.72;;;;;;;;;;5092634;28;20055;-44
2021/08/21 09:52:05;;;;;;;4.15;3.60;;;;;;;;;;5092717;28;20024;-45
2021/08/21 09:54:31;;;;;;;4.38;3.97;;;;;;;;;;5092570;28;20401;-44
2021/08/21 09:56:58;;;;;;;4.22;3.83;;;;;;;;;;5092401;28;20115;-45
2021/08/21 09:59:37;;;;;;;4.20;3.75;;;;;;;;;;5092509;28;20047;-43
2021/08/21 10:02:04;;;;;;;3.78;3.47;;;;;;;;;;5092575;28;20081;-44
2021/08/21 10:04:31;;;;;;;3.92;3.63;;;;;;;;;;5074617;28;20020;-47
2021/08/21 10:06:57;;;;;;;3.72;3.38;;;;;;;;;;5092426;28;20050;-45
2021/08/21 10:09:24;;;;;;;3.70;3.40;;;;;;;;;;5090972;28;20030;-45
2021/08/21 10:11:52;;;;;;;4.70;3.47;;;;;;;;;;5092128;28;20556;-44
2021/08/21 10:14:19;;;;;;;3.97;3.65;;;;;;;;;;5092493;28;20028;-45
2021/08/21 10:16:47;;;;;;;3.70;3.40;;;;;;;;;;5091883;28;20028;-43
2021/08/21 10:19:13;;;;;;;3.70;3.40;;;;;;;;;;5092035;28;20034;-45
2021/08/21 10:21:40;;;;;;;4.10;3.70;;;;;;;;;;5091914;28;20389;-44
2021/08/21 10:24:06;;;;;;;3.83;3.53;;;;;;;;;;5091752;28;20044;-45
2021/08/21 10:26:34;;;;;;;4.32;3.90;;;;;;;;;;5090629;28;20035;-46
2021/08/21 10:29:01;;;;;;;5.78;3.70;;;;;;;;;;5091881;28;20028;-44
2021/08/21 10:31:37;;;;;;;3.65;3.35;;;;;;;;;;5091994;28;20020;-44
2021/08/21 10:34:05;;;;;;;4.82;4.00;;;;;;;;;;5091845;28;20035;-44
2021/08/21 10:36:41;;;;;;;4.93;4.22;;;;;;;;;;5091831;28;20020;-44
2021/08/21 10:39:14;;;;;;;4.45;3.78;;;;;;;;;;5091930;28;20024;-45
2021/08/21 10:41:40;;;;;;;4.10;3.70;;;;;;;;;;5091802;28;20020;-45
2021/08/21 10:44:06;;;;;;;3.85;3.53;;;;;;;;;;5091791;28;20103;-47
2021/08/21 10:46:32;;;;;;;3.88;3.42;;;;;;;;;;5091712;28;20031;-46
2021/08/21 10:49:00;;;;;;;4.68;3.58;;;;;;;;;;5090280;28;20023;-45
2021/08/21 10:51:46;;;;;;;5.68;3.40;;;;;;;;;;5091598;28;20063;-44
2021/08/21 10:54:27;;;;;;;3.45;3.17;;;;;;;;;;5091680;28;20028;-45
2021/08/21 10:56:54;;;;;;;4.68;3.75;;;;;;;;;;5091481;28;20070;-44
2021/08/21 10:59:39;;;;;;;3.90;3.50;;;;;;;;;;5073691;28;20066;-45
2021/08/21 11:02:23;;;;;;;3.53;3.22;;;;;;;;;;5090243;28;20044;-44
2021/08/21 11:04:49;;;;;;;3.60;3.30;;;;;;;;;;5091367;28;20024;-44
2021/08/21 11:07:33;;;;;;;4.28;3.83;;;;;;;;;;5091376;28;20024;-44
2021/08/21 11:10:14;;;;;;;3.50;3.20;;;;;;;;;;5091269;28;20028;-45
2021/08/21 11:12:43;;;;;;;4.53;3.30;;;;;;;;;;5091241;28;20020;-45
2021/08/21 11:15:14;;;;;;;4.38;3.53;;;;;;;;;;5089868;28;20127;-46
2021/08/21 11:17:40;;;;;;;4.97;3.08;;;;;;;;;;5091067;28;20074;-47
2021/08/21 11:20:24;;;;;;;3.38;3.08;;;;;;;;;;5091080;28;20100;-45
2021/08/21 11:23:05;;;;;;;3.63;3.17;;;;;;;;;;5090871;28;20464;-45
2021/08/21 11:25:31;;;;;;;3.15;2.85;;;;;;;;;;5090978;28;20035;-45
2021/08/21 11:28:07;;;;;;;6.05;3.20;;;;;;;;;;5091176;28;20035;-45
2021/08/21 11:30:34;;;;;;;3.47;3.25;;;;;;;;;;5094601;28;20438;-45
2021/08/21 11:33:03;;;;;;;4.53;3.33;;;;;;;;;;5094897;28;20077;-48
2021/08/21 11:35:29;;;;;;;5.03;3.40;;;;;;;;;;5093783;28;20020;-47
2021/08/21 11:37:58;;;;;;;4.25;3.75;;;;;;;;;;5095039;28;20035;-46
2021/08/21 11:40:25;;;;;;;3.40;3.10;;;;;;;;;;5094821;28;20046;-47
2021/08/21 11:42:55;;;;;;;3.83;3.00;;;;;;;;;;5093678;28;20024;-46
2021/08/21 11:45:22;;;;;;;4.55;3.53;;;;;;;;;;5094670;28;20435;-48
2021/08/21 11:47:51;;;;;;;3.92;3.30;;;;;;;;;;5094740;28;20028;-49
2021/08/21 11:50:40;;;;;;;4.50;3.60;;;;;;;;;;5094584;28;20034;-43
2021/08/21 11:53:11;;;;;;;4.60;3.20;;;;;;;;;;5084119;28;20031;-45
2021/08/21 11:55:38;;;;;;;3.22;3.03;;;;;;;;;;5094604;28;20085;-46
2021/08/21 11:58:05;;;;;;;3.33;3.13;;;;;;;;;;5094677;28;20173;-46
2021/08/21 12:00:32;;;;;;;3.88;3.38;;;;;;;;;;5094635;28;20391;-44
2021/08/21 12:03:02;;;;;;;3.03;2.80;;;;;;;;;;5093261;28;20032;-44
2021/08/21 12:05:41;;;;;;;3.53;3.05;;;;;;;;;;5094826;28;20129;-44
2021/08/21 12:08:13;;;;;;;3.78;3.25;;;;;;;;;;5094298;28;20020;-46
2021/08/21 12:10:44;;;;;;;4.00;3.58;;;;;;;;;;5094196;28;20021;-46
2021/08/21 12:13:10;;;;;;;3.92;3.35;;;;;;;;;;5094598;28;20642;-48
2021/08/21 12:15:36;;;;;;;3.63;3.33;;;;;;;;;;5094829;28;20361;-46
2021/08/21 12:18:02;;;;;;;4.22;3.00;;;;;;;;;;5093983;28;20393;-45
2021/08/21 12:20:28;;;;;;;3.50;3.20;;;;;;;;;;5094044;28;20024;-52
2021/08/21 12:22:54;;;;;;;3.35;2.92;;;;;;;;;;5094372;28;20518;-45
2021/08/21 12:25:20;;;;;;;3.88;3.38;;;;;;;;;;5094282;28;20024;-46
2021/08/21 12:27:46;;;;;;;3.38;3.08;;;;;;;;;;5094315;28;20032;-45
2021/08/21 12:30:19;;;;;;;3.42;3.13;;;;;;;;;;5094310;28;20385;-47
2021/08/21 12:32:45;;;;;;;3.90;3.40;;;;;;;;;;5094370;28;20081;-45
2021/08/21 12:35:13;;;;;;;3.35;3.05;;;;;;;;;;5094360;28;20100;-44
2021/08/21 12:37:39;;;;;;;3.45;3.15;;;;;;;;;;5094348;28;20020;-47
2021/08/21 12:40:06;;;;;;;4.30;3.88;;;;;;;;;;5093709;28;20012;-48
2021/08/21 12:42:32;;;;;;;3.67;3.38;;;;;;;;;;5059401;28;20473;-45
2021/08/21 12:45:00;;;;;;;4.20;3.90;;;;;;;;;;5094049;28;20035;-44
2021/08/21 12:47:35;;;;;;;3.83;3.42;;;;;;;;;;5094093;28;20099;-45
2021/08/21 12:50:09;;;;;;;3.30;3.05;;;;;;;;;;5093941;28;20384;-46
2021/08/21 12:52:36;;;;;;;3.35;3.15;;;;;;;;;;5093693;28;20102;-45
2021/08/21 12:55:06;;;;;;;3.35;3.05;;;;;;;;;;5093296;28;20020;-45
2021/08/21 12:57:33;;;;;;;3.50;3.20;;;;;;;;;;5091930;28;20107;-44
2021/08/21 13:00:02;;;;;;;3.13;2.92;;;;;;;;;;5093246;28;20111;-44
2021/08/21 13:02:28;;;;;;;3.20;2.90;;;;;;;;;;5093472;28;20024;-44
2021/08/21 13:04:58;;;;;;;3.40;3.10;;;;;;;;;;5093153;28;20042;-44
2021/08/21 13:07:40;;;;;;;2.90;2.70;;;;;;;;;;5093080;28;20036;-46
2021/08/21 13:10:07;;;;;;;3.40;3.10;;;;;;;;;;5091860;28;20028;-45
2021/08/21 13:12:33;;;;;;;4.25;3.47;;;;;;;;;;5093016;28;20047;-48
2021/08/21 13:14:59;;;;;;;5.28;3.70;;;;;;;;;;5093084;28;20016;-45
2021/08/21 13:17:25;;;;;;;4.97;3.65;;;;;;;;;;5092936;28;20016;-46
2021/08/21 13:19:51;;;;;;;4.10;3.55;;;;;;;;;;5093039;28;20567;-48
2021/08/21 13:22:17;;;;;;;5.05;2.78;;;;;;;;;;5091641;28;20123;-46
2021/08/21 13:24:43;;;;;;;3.42;3.13;;;;;;;;;;5092801;28;20040;-45
2021/08/21 13:27:09;;;;;;;2.80;2.50;;;;;;;;;;5092807;28;20016;-46
2021/08/21 13:29:35;;;;;;;3.92;3.50;;;;;;;;;;5092784;28;20016;-45
2021/08/21 13:32:01;;;;;;;3.35;2.95;;;;;;;;;;5091154;28;20421;-46
2021/08/21 13:34:27;;;;;;;3.45;3.15;;;;;;;;;;5092812;28;20468;-46
2021/08/21 13:36:53;;;;;;;3.20;2.90;;;;;;;;;;5092887;28;20024;-45
2021/08/21 13:39:19;;;;;;;3.83;3.45;;;;;;;;;;5091699;28;20077;-47
2021/08/21 13:41:45;;;;;;;4.68;3.70;;;;;;;;;;5092937;28;20027;-45
2021/08/21 13:44:11;;;;;;;3.65;3.20;;;;;;;;;;5093000;28;20023;-48
2021/08/21 13:46:37;;;;;;;2.83;2.63;;;;;;;;;;5091758;28;20035;-47
2021/08/21 13:49:03;;;;;;;3.83;2.92;;;;;;;;;;5092852;28;20031;-46
2021/08/21 13:51:30;;;;;;;2.20;2.10;;;;;;;;;;5092024;28;20073;-45
2021/08/21 13:53:56;;;;;;;3.70;2.67;;;;;;;;;;5092562;28;20027;-49
2021/08/21 13:56:22;;;;;;;3.33;3.03;;;;;;;;;;5092560;28;20054;-45
2021/08/21 13:58:48;;;;;;;3.10;2.90;;;;;;;;;;5092473;28;20028;-45
2021/08/21 14:01:14;;;;;;;2.85;2.65;;;;;;;;;;5092628;28;20019;-45
2021/08/21 14:03:40;;;;;;;3.03;2.83;;;;;;;;;;5104751;28;20038;-45
2021/08/21 14:06:06;;;;;;;7.22;2.60;;;;;;;;;;5112889;28;20106;-47
2021/08/21 14:08:32;;;;;;;2.70;2.50;;;;;;;;;;5112915;28;20023;-45
2021/08/21 14:10:58;;;;;;;4.47;2.70;;;;;;;;;;5086136;28;20043;-46
2021/08/21 14:13:25;;;;;;;4.13;3.10;;;;;;;;;;5091218;28;20024;-45
2021/08/21 14:15:51;;;;;;;3.00;2.70;;;;;;;;;;5092567;28;20084;-44
2021/08/21 14:18:17;;;;;;;3.00;2.70;;;;;;;;;;5092187;28;20527;-44
2021/08/21 14:20:43;;;;;;;2.83;2.63;;;;;;;;;;5092330;28;20024;-47
2021/08/21 14:23:09;;;;;;;5.45;3.03;;;;;;;;;;5092346;28;20032;-45
2021/08/21 14:25:35;;;;;;;2.63;2.42;;;;;;;;;;5092187;28;20059;-47
2021/08/21 14:28:03;;;;;;;3.42;3.00;;;;;;;;;;5092193;28;20042;-46
2021/08/21 14:30:29;;;;;;;2.80;2.60;;;;;;;;;;5092505;28;20062;-47
2021/08/21 14:32:55;;;;;;;2.75;2.55;;;;;;;;;;5091984;28;20461;-49
2021/08/21 14:35:21;;;;;;;2.75;2.55;;;;;;;;;;5091904;28;20031;-46
2021/08/21 14:37:48;;;;;;;3.60;2.45;;;;;;;;;;5091771;28;20063;-45
2021/08/21 14:40:14;;;;;;;3.70;2.50;;;;;;;;;;5102995;28;20454;-49
2021/08/21 14:42:40;;;;;;;2.70;2.50;;;;;;;;;;5112218;28;20026;-44
2021/08/21 14:45:06;;;;;;;2.85;2.60;;;;;;;;;;5112214;28;20016;-45